Time;durP1;ratioP1;P1;durP2;ratioP2;P2;SDS_P1;SDS_P2;PMS_P1;PMS_P2;Temp;Humidity;BMP_temperature;BMP_pressure;BME280_temperature;BME280_humidity;BME280_pressure;Samples;Min_cycle;Max_cycle;Signal;HPM_P1;HPM_P2
2021/06/24 00:01:03;;;;;;;12.20;6.43;;;22.10;99.90;21.90;96816.00;;;;5084054;28;20219;-75
2021/06/24 00:03:52;;;;;;;11.10;6.40;;;22.00;99.90;21.80;96813.00;;;;5084490;28;20584;-74
2021/06/24 00:06:41;;;;;;;11.70;6.80;;;22.00;99.90;21.90;96808.00;;;;5084287;28;20219;-76
2021/06/24 00:09:31;;;;;;;10.57;6.67;;;22.00;99.90;21.90;96808.00;;;;5084991;28;20203;-75
2021/06/24 00:12:21;;;;;;;14.43;6.53;;;22.00;99.90;21.80;96801.00;;;;5077444;28;20223;-75
2021/06/24 00:15:13;;;;;;;7.90;6.17;;;22.00;99.90;22.00;96790.00;;;;5079318;28;20211;-74
2021/06/24 00:18:02;;;;;;;12.73;7.23;;;22.00;99.90;22.00;96790.00;;;;5081246;28;20203;-75
2021/06/24 00:20:52;;;;;;;10.67;6.23;;;22.00;99.90;22.00;96788.00;;;;5079869;28;20231;-72
2021/06/24 00:23:41;;;;;;;9.53;6.23;;;22.00;99.90;21.90;96788.00;;;;5083748;28;20198;-74
2021/06/24 00:26:31;;;;;;;11.73;6.53;;;22.00;99.90;21.90;96778.00;;;;5084988;28;20227;-74
2021/06/24 00:29:20;;;;;;;7.90;5.77;;;22.00;99.90;21.80;96793.00;;;;5088551;28;20196;-75
2021/06/24 00:32:09;;;;;;;10.90;6.47;;;21.90;99.90;21.80;96789.00;;;;5075985;28;21045;-73
2021/06/24 00:35:05;;;;;;;11.83;5.97;;;21.90;99.90;21.70;96796.00;;;;5088329;28;20702;-73
2021/06/24 00:37:54;;;;;;;8.67;6.37;;;21.90;99.90;21.60;96798.00;;;;5087283;28;20199;-75
2021/06/24 00:40:44;;;;;;;8.93;6.50;;;21.90;99.90;21.50;96794.00;;;;5088639;28;20203;-74
2021/06/24 00:43:35;;;;;;;9.83;7.07;;;21.80;99.90;21.40;96804.00;;;;5087993;28;20206;-75
2021/06/24 00:46:23;;;;;;;10.80;7.40;;;21.70;99.90;21.40;96805.00;;;;5087917;28;20226;-75
2021/06/24 00:49:13;;;;;;;9.87;6.97;;;21.60;99.90;21.40;96808.00;;;;5087525;28;20211;-74
2021/06/24 00:52:02;;;;;;;9.97;6.10;;;21.60;99.90;21.60;96813.00;;;;5087982;28;20572;-73
2021/06/24 00:54:51;;;;;;;7.63;6.53;;;21.60;99.90;21.40;96815.00;;;;5088092;28;20211;-73
2021/06/24 00:57:41;;;;;;;9.50;6.37;;;21.60;99.90;21.30;96819.00;;;;5088020;28;20226;-72
2021/06/24 01:00:32;;;;;;;8.27;5.60;;;21.50;99.90;21.20;96825.00;;;;5087956;28;20204;-72
2021/06/24 01:03:21;;;;;;;9.17;6.50;;;21.40;99.90;21.10;96821.00;;;;5087446;28;20526;-73
2021/06/24 01:06:10;;;;;;;9.87;7.20;;;21.40;99.90;21.20;96828.00;;;;5088355;28;20230;-73
2021/06/24 01:08:58;;;;;;;22.53;9.63;;;21.30;99.90;21.20;96826.00;;;;5086890;28;20576;-72
2021/06/24 01:11:48;;;;;;;8.10;6.93;;;21.30;99.90;20.90;96828.00;;;;5087259;28;20227;-72
2021/06/24 01:14:37;;;;;;;10.60;6.93;;;21.20;99.90;20.90;96827.00;;;;5077335;28;20211;-74
2021/06/24 01:17:27;;;;;;;11.63;7.30;;;21.10;99.90;20.90;96830.00;;;;5073728;28;20203;-73
2021/06/24 01:20:18;;;;;;;10.80;7.10;;;21.10;99.90;20.90;96835.00;;;;5086821;28;20230;-73
2021/06/24 01:23:08;;;;;;;11.80;7.13;;;21.00;99.90;20.90;96830.00;;;;5086285;28;20195;-73
2021/06/24 01:25:58;;;;;;;12.30;6.90;;;21.00;99.90;20.80;96835.00;;;;5087429;28;20443;-72
2021/06/24 01:28:47;;;;;;;9.93;7.70;;;21.00;99.90;20.80;96827.00;;;;5087676;28;20207;-73
2021/06/24 01:31:37;;;;;;;10.10;7.37;;;21.00;99.90;20.80;96821.00;;;;5087110;28;20235;-73
2021/06/24 01:34:26;;;;;;;9.63;6.83;;;20.90;99.90;20.50;96820.00;;;;5088331;28;20217;-74
2021/06/24 01:37:15;;;;;;;8.97;6.43;;;20.90;99.90;20.50;96830.00;;;;5075460;28;20222;-73
2021/06/24 01:40:05;;;;;;;11.20;7.40;;;20.80;99.90;20.40;96824.00;;;;5086498;28;20237;-73
2021/06/24 01:42:55;;;;;;;9.13;6.20;;;20.70;99.90;20.40;96822.00;;;;5087366;28;20203;-73
2021/06/24 01:45:49;;;;;;;11.90;7.13;;;20.70;99.90;20.30;96829.00;;;;5087530;28;20210;-75
2021/06/24 01:48:40;;;;;;;10.47;6.70;;;20.60;99.90;20.10;96817.00;;;;5086679;28;20200;-75
2021/06/24 01:51:29;;;;;;;9.33;7.57;;;20.50;99.90;20.10;96823.00;;;;5099796;28;20609;-74
2021/06/24 01:54:19;;;;;;;14.87;8.40;;;20.40;99.90;20.20;96820.00;;;;5087585;28;20207;-73
2021/06/24 01:57:14;;;;;;;9.97;6.97;;;20.40;99.90;20.30;96822.00;;;;5086070;28;20203;-73
2021/06/24 02:00:08;;;;;;;17.73;8.80;;;20.40;99.90;20.00;96824.00;;;;5087002;28;20574;-74
2021/06/24 02:02:57;;;;;;;12.13;7.53;;;20.40;99.90;19.70;96827.00;;;;5086099;28;20215;-75
2021/06/24 02:05:50;;;;;;;11.33;7.50;;;20.20;99.90;19.90;96824.00;;;;5087046;28;20195;-74
2021/06/24 02:08:39;;;;;;;10.90;7.50;;;20.10;99.90;19.90;96823.00;;;;5087526;28;20203;-74
2021/06/24 02:11:27;;;;;;;10.87;8.30;;;20.10;99.90;19.70;96823.00;;;;5086737;28;20223;-73
2021/06/24 02:14:16;;;;;;;12.37;6.97;;;20.10;99.90;19.90;96819.00;;;;5074144;28;20238;-74
2021/06/24 02:17:07;;;;;;;12.60;8.37;;;20.00;99.90;19.90;96810.00;;;;5087114;28;20195;-74
2021/06/24 02:19:55;;;;;;;12.47;7.87;;;20.00;99.90;19.90;96817.00;;;;5086841;28;20211;-74
2021/06/24 02:22:46;;;;;;;12.97;8.10;;;20.00;99.90;19.80;96805.00;;;;5087140;28;20223;-74
2021/06/24 02:25:35;;;;;;;10.97;7.00;;;20.00;99.90;19.50;96800.00;;;;5087272;28;20536;-74
2021/06/24 02:28:24;;;;;;;12.10;7.37;;;19.90;99.90;19.60;96805.00;;;;5087470;28;20206;-75
2021/06/24 02:31:13;;;;;;;15.67;7.50;;;19.80;99.90;19.70;96795.00;;;;5085369;28;20219;-74
2021/06/24 02:34:05;;;;;;;9.40;8.03;;;19.80;99.90;19.80;96794.00;;;;5087454;28;20207;-74
2021/06/24 02:36:54;;;;;;;12.90;7.70;;;19.90;99.90;19.30;96793.00;;;;5086482;28;20195;-75
2021/06/24 02:39:43;;;;;;;11.57;7.17;;;19.80;99.90;19.20;96799.00;;;;5085616;28;20610;-76
2021/06/24 02:42:32;;;;;;;13.43;9.33;;;19.70;99.90;19.30;96803.00;;;;5086782;28;20230;-73
2021/06/24 02:45:21;;;;;;;11.77;9.13;;;19.60;99.90;19.50;96808.00;;;;5086270;28;20222;-71
2021/06/24 02:48:10;;;;;;;13.50;7.63;;;19.60;99.90;19.40;96801.00;;;;5086088;28;20223;-75
2021/06/24 02:51:01;;;;;;;9.87;7.53;;;19.60;99.90;19.30;96813.00;;;;5098361;28;20281;-75
2021/06/24 02:53:50;;;;;;;13.57;8.23;;;19.50;99.90;19.20;96820.00;;;;5086274;28;20211;-74
2021/06/24 02:56:41;;;;;;;10.60;8.00;;;19.50;99.90;18.90;96829.00;;;;5074640;28;20577;-74
2021/06/24 02:59:30;;;;;;;9.27;7.57;;;19.40;99.90;18.90;96825.00;;;;5085567;28;20202;-74
2021/06/24 03:02:19;;;;;;;15.80;8.47;;;19.30;99.90;19.10;96838.00;;;;5086244;28;20301;-74
2021/06/24 03:05:10;;;;;;;10.97;7.83;;;19.20;99.90;19.10;96833.00;;;;5085738;28;20218;-74
2021/06/24 03:08:00;;;;;;;18.77;8.10;;;19.30;99.90;19.30;96828.00;;;;5086812;28;20227;-74
2021/06/24 03:10:49;;;;;;;11.00;7.67;;;19.30;99.90;19.40;96832.00;;;;5085864;28;20227;-73
2021/06/24 03:13:38;;;;;;;10.70;7.73;;;19.40;99.90;19.40;96835.00;;;;5072966;28;20207;-74
2021/06/24 03:16:27;;;;;;;12.10;7.53;;;19.40;99.90;19.50;96835.00;;;;5085594;28;20601;-73
2021/06/24 03:19:16;;;;;;;9.57;7.83;;;19.50;99.90;19.60;96837.00;;;;5085673;28;20215;-74
2021/06/24 03:22:05;;;;;;;9.17;7.43;;;19.50;99.90;19.30;96828.00;;;;5085416;28;20225;-74
2021/06/24 03:24:58;;;;;;;12.63;8.27;;;19.50;99.90;19.10;96831.00;;;;5085568;28;20210;-74
2021/06/24 03:27:47;;;;;;;12.57;7.67;;;19.50;99.90;18.80;96826.00;;;;5086241;28;20332;-75
2021/06/24 03:30:36;;;;;;;14.07;7.77;;;19.40;99.90;18.90;96837.00;;;;5085993;28;20225;-74
2021/06/24 03:33:26;;;;;;;11.20;7.70;;;19.20;99.90;18.80;96823.00;;;;5081327;28;20337;-74
2021/06/24 03:36:15;;;;;;;11.00;7.97;;;19.20;99.90;18.90;96830.00;;;;5085956;28;20551;-74
2021/06/24 03:39:04;;;;;;;15.40;7.93;;;19.10;99.90;19.00;96831.00;;;;5085342;28;20207;-74
2021/06/24 03:41:54;;;;;;;15.13;9.07;;;19.10;99.90;19.20;96821.00;;;;5084990;28;20219;-73
2021/06/24 03:44:44;;;;;;;13.97;7.87;;;19.30;99.90;19.20;96823.00;;;;5084613;28;20212;-73
2021/06/24 03:47:33;;;;;;;15.10;7.67;;;19.20;99.90;18.90;96823.00;;;;5086373;28;20218;-74
2021/06/24 03:50:22;;;;;;;12.90;8.27;;;19.20;99.90;18.70;96827.00;;;;5082585;28;20214;-74
2021/06/24 03:53:11;;;;;;;16.23;8.47;;;19.10;99.90;18.90;96825.00;;;;5085882;28;20573;-74
2021/06/24 03:56:00;;;;;;;14.30;10.87;;;19.10;99.90;18.90;96826.00;;;;5085213;28;20226;-73
2021/06/24 03:58:50;;;;;;;13.07;8.47;;;19.10;99.90;18.70;96817.00;;;;5085374;28;20226;-75
2021/06/24 04:01:43;;;;;;;14.73;8.50;;;19.00;99.90;18.70;96816.00;;;;5074755;28;20223;-75
2021/06/24 04:04:32;;;;;;;11.67;9.03;;;19.00;99.90;18.90;96813.00;;;;5089284;28;20218;-75
2021/06/24 04:07:21;;;;;;;12.27;8.27;;;19.00;99.90;19.00;96813.00;;;;5088728;28;20242;-76
2021/06/24 04:10:12;;;;;;;13.47;9.27;;;19.10;99.90;19.00;96815.00;;;;5089592;28;20206;-74
2021/06/24 04:13:01;;;;;;;11.33;8.23;;;19.10;99.90;18.80;96816.00;;;;5080708;28;20207;-75
2021/06/24 04:15:51;;;;;;;11.47;8.10;;;19.10;99.90;18.60;96808.00;;;;5089047;28;20689;-74
2021/06/24 04:18:40;;;;;;;10.43;8.27;;;19.00;99.90;18.70;96805.00;;;;5080284;28;20195;-73
2021/06/24 04:21:29;;;;;;;12.93;8.40;;;19.00;99.90;18.80;96809.00;;;;5079688;28;20223;-73
2021/06/24 04:24:18;;;;;;;11.80;9.60;;;19.00;99.90;18.90;96817.00;;;;5088041;28;20222;-74
2021/06/24 04:27:08;;;;;;;14.13;9.33;;;19.00;99.90;19.00;96818.00;;;;5089059;28;20587;-72
2021/06/24 04:29:56;;;;;;;12.57;8.50;;;19.00;99.90;19.20;96814.00;;;;5088346;28;20215;-74
2021/06/24 04:32:47;;;;;;;15.80;9.40;;;19.10;99.90;19.40;96808.00;;;;5088955;28;20227;-74
2021/06/24 04:35:37;;;;;;;10.33;7.60;;;19.20;99.90;19.50;96813.00;;;;5087853;28;20199;-74
2021/06/24 04:38:25;;;;;;;11.07;8.03;;;19.40;99.90;19.60;96817.00;;;;5087743;28;20203;-74
2021/06/24 04:41:14;;;;;;;15.33;8.37;;;19.50;99.90;19.60;96808.00;;;;5088985;28;20226;-75
2021/06/24 04:44:03;;;;;;;15.27;8.33;;;19.60;99.90;19.60;96812.00;;;;5089303;28;20195;-75
2021/06/24 04:46:54;;;;;;;9.03;7.47;;;19.60;99.90;19.80;96812.00;;;;5086827;28;20222;-75
2021/06/24 04:49:44;;;;;;;13.93;9.67;;;19.70;99.90;20.10;96799.00;;;;5090518;28;20198;-75
2021/06/24 04:52:33;;;;;;;11.90;8.60;;;19.80;99.90;20.00;96804.00;;;;5089137;28;20231;-75
2021/06/24 04:55:23;;;;;;;17.17;8.23;;;20.00;99.90;19.90;96794.00;;;;5087341;28;20211;-76
2021/06/24 04:58:12;;;;;;;11.37;8.30;;;20.00;99.90;20.10;96797.00;;;;5086660;28;20203;-75
2021/06/24 05:01:00;;;;;;;14.30;8.97;;;20.10;99.90;20.20;96794.00;;;;5086763;28;20740;-76
2021/06/24 05:03:49;;;;;;;12.87;8.40;;;20.20;99.90;20.50;96800.00;;;;5086869;28;20207;-77
2021/06/24 05:06:41;;;;;;;16.33;8.57;;;20.30;99.90;20.50;96801.00;;;;5087413;28;20206;-76
2021/06/24 05:09:31;;;;;;;12.47;8.13;;;20.40;99.90;20.60;96794.00;;;;5088180;28;20258;-75
2021/06/24 05:12:20;;;;;;;13.40;8.57;;;20.50;99.90;20.70;96786.00;;;;5083113;28;20223;-79
2021/06/24 05:15:11;;;;;;;12.43;7.13;;;20.60;99.90;20.70;96790.00;;;;5080719;28;20589;-75
2021/06/24 05:18:01;;;;;;;10.57;7.63;;;20.70;99.90;21.00;96798.00;;;;5088018;28;20572;-75
2021/06/24 05:20:49;;;;;;;13.30;7.37;;;20.80;99.90;21.10;96791.00;;;;5086804;28;20645;-74
2021/06/24 05:23:40;;;;;;;16.27;7.93;;;21.00;99.90;21.40;96783.00;;;;5085821;28;20218;-74
2021/06/24 05:26:29;;;;;;;17.57;9.13;;;21.10;99.90;21.40;96786.00;;;;5083639;28;20203;-75
2021/06/24 05:29:18;;;;;;;13.50;8.27;;;21.30;99.90;21.50;96781.00;;;;5084487;28;20725;-75
2021/06/24 05:32:08;;;;;;;14.47;7.97;;;21.40;99.90;21.90;96778.00;;;;5090500;28;20619;-76
2021/06/24 05:34:56;;;;;;;9.57;7.67;;;21.50;99.90;22.00;96784.00;;;;5090097;28;20237;-76
2021/06/24 05:37:45;;;;;;;11.70;7.80;;;21.70;99.90;22.00;96787.00;;;;5085967;28;20191;-76
2021/06/24 05:40:36;;;;;;;10.50;8.27;;;21.80;99.90;22.30;96786.00;;;;5076498;28;20196;-76
2021/06/24 05:43:25;;;;;;;12.10;7.57;;;22.00;99.90;22.50;96785.00;;;;5086649;28;20839;-76
2021/06/24 05:46:13;;;;;;;12.07;7.07;;;22.20;99.90;22.70;96792.00;;;;5087029;28;20214;-76
2021/06/24 05:49:02;;;;;;;15.07;8.03;;;22.30;99.90;22.80;96791.00;;;;5086027;28;20906;-76
2021/06/24 05:51:51;;;;;;;13.80;7.47;;;22.50;99.90;23.00;96790.00;;;;5085586;28;20223;-76
2021/06/24 05:54:40;;;;;;;12.63;7.97;;;22.70;99.90;23.20;96790.00;;;;5087105;28;20206;-77
2021/06/24 05:57:30;;;;;;;13.63;7.93;;;22.80;99.90;23.50;96786.00;;;;5086240;28;20192;-76
2021/06/24 06:00:20;;;;;;;12.17;8.00;;;23.00;99.90;23.40;96791.00;;;;5086700;28;20199;-76
2021/06/24 06:03:10;;;;;;;22.10;9.13;;;23.10;99.90;23.60;96795.00;;;;5084131;28;20245;-76
2021/06/24 06:05:59;;;;;;;15.40;8.77;;;23.30;99.90;23.80;96794.00;;;;5086281;28;20207;-77
2021/06/24 06:08:48;;;;;;;15.10;8.87;;;23.40;99.90;24.20;96792.00;;;;5086720;28;20219;-76
2021/06/24 06:11:37;;;;;;;12.67;7.43;;;23.60;99.90;24.30;96792.00;;;;5085540;28;20219;-76
2021/06/24 06:14:27;;;;;;;14.03;7.77;;;23.80;99.90;24.50;96791.00;;;;5065927;28;20207;-75
2021/06/24 06:17:16;;;;;;;14.80;7.63;;;24.10;99.90;24.70;96794.00;;;;5073468;28;20211;-75
2021/06/24 06:20:07;;;;;;;16.23;7.60;;;24.20;99.90;24.80;96796.00;;;;5068504;28;20196;-75
2021/06/24 06:22:56;;;;;;;13.63;6.90;;;24.40;99.90;25.00;96795.00;;;;5085244;28;20211;-76
2021/06/24 06:25:45;;;;;;;18.50;8.27;;;24.60;99.90;25.20;96790.00;;;;5088733;28;20207;-76
2021/06/24 06:28:34;;;;;;;12.27;7.83;;;24.70;99.90;25.40;96789.00;;;;5087283;28;20227;-76
2021/06/24 06:31:25;;;;;;;15.43;7.93;;;24.90;99.90;25.60;96790.00;;;;5084583;28;20224;-76
2021/06/24 06:34:13;;;;;;;18.93;7.93;;;25.10;99.90;25.70;96788.00;;;;5085964;28;20677;-76
2021/06/24 06:37:03;;;;;;;22.60;7.73;;;25.20;99.90;25.80;96791.00;;;;5085868;28;20208;-76
2021/06/24 06:39:51;;;;;;;12.47;7.50;;;25.40;99.90;26.00;96796.00;;;;5086105;28;20606;-76
2021/06/24 06:42:41;;;;;;;11.07;6.70;;;25.60;99.90;26.20;96794.00;;;;5086694;28;20228;-76
2021/06/24 06:45:31;;;;;;;11.17;7.37;;;25.70;99.90;26.40;96797.00;;;;5086023;28;20209;-76
2021/06/24 06:48:22;;;;;;;12.00;7.67;;;25.90;99.90;26.60;96805.00;;;;5085968;28;20681;-76
2021/06/24 06:51:11;;;;;;;16.93;7.03;;;26.00;99.90;26.70;96803.00;;;;5091026;28;20249;-76
2021/06/24 06:54:00;;;;;;;13.57;8.23;;;26.20;99.90;26.90;96799.00;;;;5087548;28;20214;-76
2021/06/24 06:56:49;;;;;;;9.50;6.27;;;26.30;99.90;27.00;96802.00;;;;5086227;28;20210;-75
2021/06/24 06:59:37;;;;;;;18.30;6.87;;;26.50;99.90;27.10;96804.00;;;;5085522;28;20205;-76
2021/06/24 07:02:28;;;;;;;13.37;6.43;;;26.70;99.90;27.30;96799.00;;;;5085574;28;20253;-76
2021/06/24 07:05:18;;;;;;;10.43;7.10;;;26.80;99.90;27.40;96797.00;;;;5076998;28;20426;-76
2021/06/24 07:08:07;;;;;;;14.67;6.73;;;27.00;99.90;27.60;96797.00;;;;5079187;28;20209;-76
2021/06/24 07:10:56;;;;;;;14.20;6.17;;;27.10;99.90;27.80;96798.00;;;;5080790;28;20236;-76
2021/06/24 07:13:45;;;;;;;18.13;7.90;;;27.30;99.90;27.80;96783.00;;;;5077971;28;20208;-76
2021/06/24 07:16:34;;;;;;;15.33;6.97;;;27.40;99.90;27.90;96783.00;;;;5084145;28;20211;-76
2021/06/24 07:19:23;;;;;;;14.03;6.43;;;27.50;99.90;28.10;96786.00;;;;5086825;28;20220;-76
2021/06/24 07:22:13;;;;;;;17.40;7.20;;;27.60;99.90;28.20;96783.00;;;;5075618;28;20229;-76
2021/06/24 07:25:02;;;;;;;10.73;6.43;;;27.80;99.90;28.30;96782.00;;;;5085589;28;20587;-76
2021/06/24 07:27:52;;;;;;;10.97;6.27;;;27.90;99.90;28.50;96786.00;;;;5085580;28;20202;-76
2021/06/24 07:30:41;;;;;;;13.67;6.83;;;28.20;99.90;28.70;96791.00;;;;5085984;28;20233;-76
2021/06/24 07:33:34;;;;;;;19.13;6.67;;;28.10;99.90;28.80;96783.00;;;;5089288;28;20199;-76
2021/06/24 07:36:23;;;;;;;17.37;6.60;;;28.30;99.90;28.80;96774.00;;;;5088509;28;20201;-76
2021/06/24 07:39:14;;;;;;;17.57;6.53;;;28.40;99.90;28.80;96769.00;;;;5090229;28;20689;-76
2021/06/24 07:42:03;;;;;;;15.70;6.17;;;28.50;99.90;29.00;96771.00;;;;5089550;28;20232;-76
2021/06/24 07:44:52;;;;;;;13.27;5.93;;;28.60;99.90;29.20;96755.00;;;;5090268;28;20199;-76
2021/06/24 07:47:41;;;;;;;15.30;7.17;;;28.70;99.90;29.30;96766.00;;;;5089540;28;20285;-76
2021/06/24 07:50:32;;;;;;;11.80;6.43;;;28.80;99.90;29.30;96769.00;;;;5099520;28;20216;-76
2021/06/24 07:53:21;;;;;;;13.97;5.57;;;28.90;99.00;29.60;96761.00;;;;5089157;28;20393;-76
2021/06/24 07:56:11;;;;;;;18.97;5.77;;;29.00;98.90;29.70;96758.00;;;;5090471;28;20204;-76
2021/06/24 07:59:00;;;;;;;14.07;6.20;;;29.20;97.80;29.70;96755.00;;;;5089375;28;20212;-76
2021/06/24 08:01:49;;;;;;;16.90;7.03;;;29.30;96.90;30.00;96767.00;;;;5088335;28;20224;-76
2021/06/24 08:04:38;;;;;;;12.70;6.70;;;29.40;96.10;30.20;96759.00;;;;5089470;28;20213;-77
2021/06/24 08:07:27;;;;;;;14.43;6.13;;;29.60;94.40;30.20;96759.00;;;;5089902;28;20232;-76
2021/06/24 08:10:16;;;;;;;16.27;6.87;;;29.70;93.70;30.40;96751.00;;;;5089017;28;20232;-76
2021/06/24 08:13:07;;;;;;;15.93;6.78;;;29.90;93.20;30.60;96747.00;;;;5088739;28;20205;-76
2021/06/24 08:15:58;;;;;;;19.98;6.78;;;30.00;92.90;30.70;96748.00;;;;5079019;28;20205;-76
2021/06/24 08:18:47;;;;;;;13.02;5.68;;;30.50;91.70;30.70;96745.00;;;;5090256;28;20220;-76
2021/06/24 08:21:36;;;;;;;17.58;6.80;;;30.30;88.90;30.60;96743.00;;;;5088205;28;20226;-76
2021/06/24 08:24:25;;;;;;;17.38;6.20;;;30.40;84.40;30.80;96745.00;;;;5084215;28;20193;-76
2021/06/24 08:27:14;;;;;;;14.60;6.13;;;30.40;80.90;30.90;96739.00;;;;5084640;28;20207;-76
2021/06/24 08:30:07;;;;;;;18.83;5.53;;;30.50;80.40;31.20;96736.00;;;;5083772;28;20226;-77
2021/06/24 08:32:56;;;;;;;22.65;6.80;;;30.60;79.80;31.50;96734.00;;;;5086762;28;20204;-77
2021/06/24 08:35:45;;;;;;;13.32;5.65;;;30.80;78.70;31.00;96740.00;;;;5082436;28;20195;-77
2021/06/24 08:38:34;;;;;;;20.20;6.32;;;30.90;74.20;31.20;96727.00;;;;5077937;28;20275;-77
2021/06/24 08:41:25;;;;;;;20.10;5.50;;;30.80;69.70;31.50;96731.00;;;;5088352;28;20219;-77
2021/06/24 08:44:14;;;;;;;15.48;5.85;;;31.00;70.10;31.80;96730.00;;;;5088930;28;20236;-77
2021/06/24 08:47:05;;;;;;;13.52;4.38;;;31.10;68.50;32.00;96729.00;;;;5086846;28;20205;-77
2021/06/24 08:49:57;;;;;;;14.25;4.65;;;31.30;67.20;32.20;96735.00;;;;5093078;28;20696;-74
2021/06/24 08:52:49;;;;;;;15.82;5.32;;;31.40;65.40;32.30;96735.00;;;;5075630;28;20223;-77
2021/06/24 08:55:40;;;;;;;18.95;4.75;;;31.70;65.30;32.50;96729.00;;;;5087649;28;20198;-77
2021/06/24 08:58:29;;;;;;;17.13;6.68;;;31.80;65.30;32.40;96735.00;;;;5088765;28;21045;-77
2021/06/24 09:01:18;;;;;;;16.70;6.80;;;31.90;62.40;32.40;96733.00;;;;5088266;28;20229;-77
2021/06/24 09:04:15;;;;;;;15.30;5.65;;;32.00;63.10;32.70;96727.00;;;;5089456;28;20248;-76
2021/06/24 09:07:09;;;;;;;16.45;6.35;;;32.10;66.00;32.40;96732.00;;;;5087253;28;20229;-77
2021/06/24 09:10:00;;;;;;;16.13;5.78;;;32.10;60.30;31.30;96739.00;;;;5085800;28;20229;-76
2021/06/24 09:12:55;;;;;;;13.82;5.05;;;32.00;58.10;31.70;96727.00;;;;5087082;28;20238;-76
2021/06/24 09:15:45;;;;;;;25.55;7.32;;;31.80;58.20;32.10;96729.00;;;;5077561;28;20202;-76
2021/06/24 09:18:37;;;;;;;17.45;5.25;;;31.80;58.70;32.00;96728.00;;;;5085959;28;20210;-76
2021/06/24 09:21:29;;;;;;;18.10;6.20;;;31.80;57.90;32.50;96728.00;;;;5087865;28;20221;-76
2021/06/24 09:24:28;;;;;;;20.63;6.45;;;31.80;59.20;33.10;96728.00;;;;5087033;28;20201;-76
2021/06/24 09:27:29;;;;;;;14.93;6.72;;;32.10;60.40;33.30;96734.00;;;;5078211;28;20206;-76
2021/06/24 09:30:19;;;;;;;14.93;5.93;;;32.40;60.20;33.40;96726.00;;;;5087467;28;20225;-76
2021/06/24 09:33:10;;;;;;;18.55;6.03;;;32.70;59.60;33.60;96724.00;;;;5087374;28;20206;-76
2021/06/24 09:35:59;;;;;;;16.05;6.53;;;32.80;59.50;34.00;96720.00;;;;5087305;28;20210;-77
2021/06/24 09:38:53;;;;;;;20.35;5.50;;;33.10;59.30;33.30;96731.00;;;;5086685;28;20203;-76
2021/06/24 09:41:58;;;;;;;24.02;6.70;;;33.20;56.40;33.20;96723.00;;;;5075570;28;20688;-76
2021/06/24 09:44:47;;;;;;;15.45;6.18;;;33.10;56.10;33.60;96718.00;;;;5087263;28;20201;-76
2021/06/24 09:47:36;;;;;;;16.90;5.85;;;33.20;57.20;33.90;96707.00;;;;5084135;28;20206;-76
2021/06/24 09:50:25;;;;;;;15.98;5.35;;;33.30;56.50;33.80;96719.00;;;;5091032;28;20699;-76
2021/06/24 09:53:15;;;;;;;13.38;5.18;;;33.30;56.80;33.00;96703.00;;;;5093344;28;20591;-77
2021/06/24 09:56:22;;;;;;;23.45;7.07;;;33.30;56.40;33.90;96701.00;;;;5087364;28;20214;-76
2021/06/24 09:59:13;;;;;;;20.48;5.93;;;33.30;57.30;34.30;96705.00;;;;5072522;28;20202;-76
2021/06/24 10:02:14;;;;;;;20.20;5.57;;;33.50;57.00;33.70;96707.00;;;;5084988;28;20861;-76
2021/06/24 10:05:04;;;;;;;15.25;5.68;;;33.60;55.20;33.70;96715.00;;;;5088189;28;20227;-77
2021/06/24 10:07:54;;;;;;;16.52;6.03;;;33.50;54.40;34.20;96701.00;;;;5089627;28;20209;-76
2021/06/24 10:10:44;;;;;;;17.30;4.47;;;33.60;55.20;34.40;96702.00;;;;5087405;28;20610;-77
2021/06/24 10:13:34;;;;;;;13.70;4.72;;;33.80;54.70;34.60;96700.00;;;;5087365;28;20193;-78
2021/06/24 10:16:28;;;;;;;20.40;5.47;;;33.90;54.10;34.80;96695.00;;;;5092342;28;20209;-77
2021/06/24 10:19:18;;;;;;;12.80;4.28;;;34.10;53.80;34.10;96691.00;;;;5086584;28;20741;-76
2021/06/24 10:22:13;;;;;;;18.60;5.97;;;34.10;52.30;32.50;96700.00;;;;5087111;28;20224;-76
2021/06/24 10:25:06;;;;;;;12.20;5.35;;;33.50;51.90;33.90;96704.00;;;;5087342;28;20230;-78
2021/06/24 10:27:58;;;;;;;28.42;5.07;;;33.40;53.20;34.60;96707.00;;;;5088182;28;20717;-78
2021/06/24 10:30:48;;;;;;;13.23;4.00;;;33.60;53.90;35.00;96704.00;;;;5088551;28;20234;-78
2021/06/24 10:33:55;;;;;;;26.65;5.00;;;33.90;53.30;35.20;96699.00;;;;5078844;28;20198;-77
2021/06/24 10:37:11;;;;;;;16.35;4.35;;;34.30;53.10;35.10;96702.00;;;;5081538;28;20199;-77
2021/06/24 10:40:02;;;;;;;21.70;5.72;;;34.50;51.70;35.60;96697.00;;;;5093972;28;20203;-77
2021/06/24 10:42:53;;;;;;;12.10;4.57;;;34.60;52.50;35.30;96697.00;;;;5085114;28;20198;-76
2021/06/24 10:45:44;;;;;;;10.48;4.85;;;34.90;52.20;34.10;96739.00;;;;5080100;28;20219;-76
2021/06/24 10:48:34;;;;;;;20.77;5.32;;;34.50;51.80;35.00;96680.00;;;;5077478;28;20214;-77
2021/06/24 10:51:34;;;;;;;27.05;5.13;;;34.50;52.40;35.20;96682.00;;;;5086646;28;20238;-77
2021/06/24 10:54:41;;;;;;;13.85;5.38;;;34.60;53.50;34.30;96697.00;;;;5085445;28;20203;-77
2021/06/24 10:57:36;;;;;;;9.80;4.43;;;34.50;54.00;33.80;96727.00;;;;5086187;28;20206;-77
2021/06/24 11:00:35;;;;;;;15.50;5.05;;;34.20;53.70;33.20;96723.00;;;;5086880;28;20195;-77
2021/06/24 11:03:37;;;;;;;12.15;4.90;;;33.70;54.70;34.70;96703.00;;;;5086343;28;20206;-77
2021/06/24 11:06:40;;;;;;;17.27;6.13;;;33.80;56.10;34.40;96660.00;;;;5086790;28;20210;-77
2021/06/24 11:09:31;;;;;;;14.45;5.68;;;33.90;56.50;33.10;96655.00;;;;5086887;28;20212;-77
2021/06/24 11:12:59;;;;;;;12.93;5.55;;;33.70;55.10;33.90;96685.00;;;;5085737;28;20241;-77
2021/06/24 11:15:56;;;;;;;15.80;5.70;;;33.60;56.50;34.70;96646.00;;;;5075525;28;20201;-76
2021/06/24 11:18:52;;;;;;;17.85;5.78;;;33.90;57.20;36.00;96656.00;;;;5085756;28;20263;-76
2021/06/24 11:21:58;;;;;;;15.77;6.30;;;34.30;57.70;35.30;96653.00;;;;5082641;28;20708;-77
2021/06/24 11:24:58;;;;;;;19.83;5.45;;;34.60;56.20;35.70;96649.00;;;;5084567;28;20199;-77
2021/06/24 11:27:47;;;;;;;20.42;5.25;;;34.90;55.90;36.40;96636.00;;;;5080419;28;20199;-77
2021/06/24 11:31:05;;;;;;;22.33;5.63;;;35.20;56.00;34.80;96703.00;;;;5078573;28;20223;-78
2021/06/24 11:34:03;;;;;;;18.38;5.28;;;35.10;55.40;34.10;96698.00;;;;5079911;28;20199;-78
2021/06/24 11:36:54;;;;;;;19.35;5.38;;;34.60;55.60;33.70;96641.00;;;;5082632;28;20203;-78
2021/06/24 11:39:46;;;;;;;18.08;6.07;;;34.30;55.70;35.70;96636.00;;;;5087237;28;20202;-78
2021/06/24 11:42:41;;;;;;;18.02;5.95;;;34.50;56.20;36.00;96639.00;;;;5087991;28;20698;-77
2021/06/24 11:45:30;;;;;;;19.92;6.28;;;34.90;54.20;36.80;96635.00;;;;5087235;28;20468;-78
2021/06/24 11:48:20;;;;;;;13.77;5.25;;;35.30;55.10;37.10;96634.00;;;;5087833;28;20196;-78
2021/06/24 12:00:48;;;;;;;17.55;5.38;;;36.50;53.50;37.70;96634.00;;;;5049120;28;20268;-77
2021/06/24 12:03:36;;;;;;;22.17;7.03;;;36.80;52.30;37.30;96696.00;;;;5086763;28;20199;-77
2021/06/24 12:06:25;;;;;;;16.08;5.10;;;36.90;51.60;35.50;96696.00;;;;5087658;28;20218;-78
2021/06/24 12:09:19;;;;;;;17.05;5.72;;;36.30;50.80;35.00;96687.00;;;;5093043;28;20221;-78
2021/06/24 12:12:11;;;;;;;11.50;5.15;;;35.70;51.30;35.40;96667.00;;;;5087977;28;20238;-77
2021/06/24 12:15:02;;;;;;;22.27;4.35;;;35.40;51.80;35.80;96619.00;;;;5073494;28;20206;-77
2021/06/24 12:17:51;;;;;;;16.98;6.07;;;35.30;51.80;35.00;96681.00;;;;5086029;28;20199;-77
2021/06/24 12:20:40;;;;;;;19.10;6.00;;;35.00;52.50;36.50;96606.00;;;;5076382;28;20242;-77
2021/06/24 12:23:45;;;;;;;16.05;5.18;;;35.20;52.70;35.80;96621.00;;;;5090335;28;20199;-77
2021/06/24 12:26:33;;;;;;;23.35;7.55;;;35.40;52.20;36.00;96671.00;;;;5091559;28;20195;-77
2021/06/24 12:29:22;;;;;;;15.57;5.50;;;35.40;51.80;35.20;96655.00;;;;5090036;28;20811;-76
2021/06/24 12:32:13;;;;;;;18.77;5.90;;;35.20;52.50;36.50;96589.00;;;;5089365;28;20229;-77
2021/06/24 12:35:02;;;;;;;21.67;6.03;;;35.30;53.70;37.30;96584.00;;;;5079274;28;20210;-77
2021/06/24 12:37:55;;;;;;;21.45;6.07;;;35.70;52.90;38.60;96589.00;;;;5088422;28;20199;-76
2021/06/24 12:40:47;;;;;;;17.60;5.43;;;36.40;53.80;37.30;96634.00;;;;5087939;28;20199;-79